Time,TemperatureF,DewpointF,PressureIn,WindDirection,WindDirectionDegrees,WindSpeedMPH,WindSpeedGustMPH,Humidity,HourlyPrecipIn,Conditions,Clouds,dailyrainin,SoftwareType,DateUTC
2013-01-07 00:00:00,35.3,28.2,30.07,West,267,0.0,1.0,75,0.00,,,0.00,Wunderground v.1.13,2013-01-07 05:00:00,
2013-01-07 00:05:00,34.7,27.9,30.08,West,267,0.0,1.0,76,0.00,,,0.00,Wunderground v.1.13,2013-01-07 05:05:00,
2013-01-07 00:15:00,34.0,27.5,30.08,West,267,0.0,1.0,77,0.00,,,0.00,Wunderground v.1.13,2013-01-07 05:15:00,
2013-01-07 00:20:00,33.7,27.3,30.08,West,267,0.0,0.0,77,0.00,,,0.00,Wunderground v.1.13,2013-01-07 05:20:00,
2013-01-07 00:30:00,33.2,27.1,30.08,West,267,0.0,0.0,78,0.00,,,0.00,Wunderground v.1.13,2013-01-07 05:30:00,
2013-01-07 00:35:00,33.1,27.0,30.08,West,267,0.0,0.0,78,0.00,,,0.00,Wunderground v.1.13,2013-01-07 05:35:00,
2013-01-07 00:40:00,33.1,27.0,30.08,West,267,0.0,0.0,78,0.00,,,0.00,Wunderground v.1.13,2013-01-07 05:40:00,
2013-01-07 00:50:00,33.1,27.0,30.09,West,267,0.0,1.0,78,0.00,,,0.00,Wunderground v.1.13,2013-01-07 05:50:00,
2013-01-07 00:55:00,33.1,27.0,30.09,West,267,0.0,1.0,78,0.00,,,0.00,Wunderground v.1.13,2013-01-07 05:55:00,
2013-01-07 01:05:00,32.9,26.8,30.09,West,267,0.0,1.0,78,0.00,,,0.00,Wunderground v.1.13,2013-01-07 06:05:00,
2013-01-07 01:10:00,32.9,26.8,30.09,West,267,0.0,1.0,78,0.00,,,0.00,Wunderground v.1.13,2013-01-07 06:10:00,
2013-01-07 01:15:00,33.2,27.1,30.09,West,267,0.0,1.0,78,0.00,,,0.00,Wunderground v.1.13,2013-01-07 06:15:00,
2013-01-07 01:20:00,33.5,27.1,30.09,West,267,0.0,2.0,77,0.00,,,0.00,Wunderground v.1.13,2013-01-07 06:20:00,
2013-01-07 01:30:00,34.3,27.2,30.10,West,267,0.0,2.0,75,0.00,,,0.00,Wunderground v.1.13,2013-01-07 06:30:00,
2013-01-07 01:35:00,34.9,27.1,30.10,WNW,288,1.0,3.0,73,0.00,,,0.00,Wunderground v.1.13,2013-01-07 06:35:00,
2013-01-07 01:45:00,36.2,27.4,30.10,WNW,297,2.0,3.0,70,0.00,,,0.00,Wunderground v.1.13,2013-01-07 06:45:00,
2013-01-07 01:50:00,36.8,27.2,30.10,WNW,297,2.0,6.0,68,0.00,,,0.00,Wunderground v.1.13,2013-01-07 06:50:00,
2013-01-07 01:55:00,37.0,27.1,30.10,WNW,297,2.0,2.0,67,0.00,,,0.00,Wunderground v.1.13,2013-01-07 06:55:00,
2013-01-07 02:05:00,37.0,27.1,30.10,WNW,297,2.0,4.0,67,0.00,,,0.00,Wunderground v.1.13,2013-01-07 07:05:00,
2013-01-07 02:10:00,36.8,26.9,30.11,WNW,297,1.0,4.0,67,0.00,,,0.00,Wunderground v.1.13,2013-01-07 07:10:00,
2013-01-07 02:20:00,36.3,26.7,30.11,WNW,297,1.0,3.0,68,0.00,,,0.00,Wunderground v.1.13,2013-01-07 07:20:00,
2013-01-07 02:25:00,36.0,26.5,30.11,WNW,297,1.0,1.0,68,0.00,,,0.00,Wunderground v.1.13,2013-01-07 07:25:00,
2013-01-07 02:30:00,35.3,26.5,30.11,WNW,297,0.0,3.0,70,0.00,,,0.00,Wunderground v.1.13,2013-01-07 07:30:00,
2013-01-07 02:40:00,34.1,26.0,30.11,WNW,297,0.0,2.0,72,0.00,,,0.00,Wunderground v.1.13,2013-01-07 07:40:00,
2013-01-07 02:45:00,33.5,25.8,30.12,WNW,297,0.0,2.0,73,0.00,,,0.00,Wunderground v.1.13,2013-01-07 07:45:00,
2013-01-07 02:55:00,33.1,26.0,30.12,WNW,297,0.0,1.0,75,0.00,,,0.00,Wunderground v.1.13,2013-01-07 07:55:00,
2013-01-07 03:00:00,33.4,26.3,30.12,WNW,297,1.0,2.0,75,0.00,,,0.00,Wunderground v.1.13,2013-01-07 08:00:00,
2013-01-07 03:05:00,34.0,26.6,30.12,WNW,297,1.0,3.0,74,0.00,,,0.00,Wunderground v.1.13,2013-01-07 08:05:00,
2013-01-07 03:15:00,35.2,26.7,30.12,WNW,296,2.0,3.0,71,0.00,,,0.00,Wunderground v.1.13,2013-01-07 08:15:00,
2013-01-07 03:20:00,35.6,26.8,30.12,WNW,296,2.0,4.0,70,0.00,,,0.00,Wunderground v.1.13,2013-01-07 08:20:00,
2013-01-07 03:30:00,35.9,26.7,30.12,WNW,297,2.0,2.0,69,0.00,,,0.00,Wunderground v.1.13,2013-01-07 08:30:00,
2013-01-07 03:35:00,36.0,26.5,30.12,WNW,297,2.0,2.0,68,0.00,,,0.00,Wunderground v.1.13,2013-01-07 08:35:00,
2013-01-07 03:45:00,36.0,26.5,30.12,WNW,295,2.0,4.0,68,0.00,,,0.00,Wunderground v.1.13,2013-01-07 08:45:00,
2013-01-07 03:50:00,35.9,26.4,30.12,WNW,294,2.0,4.0,68,0.00,,,0.00,Wunderground v.1.13,2013-01-07 08:50:00,
2013-01-07 03:55:00,35.9,26.4,30.12,West,275,2.0,4.0,68,0.00,,,0.00,Wunderground v.1.13,2013-01-07 08:55:00,
2013-01-07 04:05:00,35.9,26.4,30.13,WNW,293,2.0,5.0,68,0.00,,,0.00,Wunderground v.1.13,2013-01-07 09:05:00,
2013-01-07 04:10:00,35.8,26.3,30.13,West,275,2.0,5.0,68,0.00,,,0.00,Wunderground v.1.13,2013-01-07 09:10:00,
2013-01-07 04:20:00,35.8,26.6,30.13,West,279,2.0,5.0,69,0.00,,,0.00,Wunderground v.1.13,2013-01-07 09:20:00,
2013-01-07 04:25:00,35.9,26.4,30.14,West,277,2.0,5.0,68,0.00,,,0.00,Wunderground v.1.13,2013-01-07 09:25:00,
2013-01-07 04:30:00,35.9,26.4,30.14,SW,228,2.0,5.0,68,0.00,,,0.00,Wunderground v.1.13,2013-01-07 09:30:00,
2013-01-07 04:35:00,36.0,26.5,30.14,West,268,2.0,2.0,68,0.00,,,0.00,Wunderground v.1.13,2013-01-07 09:35:00,
2013-01-07 04:45:00,35.9,26.4,30.15,West,261,2.0,6.0,68,0.00,,,0.00,Wunderground v.1.13,2013-01-07 09:45:00,
2013-01-07 04:50:00,35.8,26.3,30.15,West,261,1.0,6.0,68,0.00,,,0.00,Wunderground v.1.13,2013-01-07 09:50:00,
2013-01-07 05:00:00,35.6,26.4,30.15,West,261,1.0,1.0,69,0.00,,,0.00,Wunderground v.1.13,2013-01-07 10:00:00,
2013-01-07 05:05:00,35.5,26.3,30.16,West,261,1.0,3.0,69,0.00,,,0.00,Wunderground v.1.13,2013-01-07 10:05:00,
2013-01-07 05:10:00,35.5,26.3,30.16,West,261,2.0,2.0,69,0.00,,,0.00,Wunderground v.1.13,2013-01-07 10:10:00,
2013-01-07 05:20:00,35.3,26.5,30.17,WNW,294,2.0,2.0,70,0.00,,,0.00,Wunderground v.1.13,2013-01-07 10:20:00,
2013-01-07 05:25:00,35.3,26.5,30.17,WNW,294,2.0,2.0,70,0.00,,,0.00,Wunderground v.1.13,2013-01-07 10:25:00,
2013-01-07 05:30:00,35.2,26.4,30.17,WNW,294,2.0,2.0,70,0.00,,,0.00,Wunderground v.1.13,2013-01-07 10:30:00,
2013-01-07 05:40:00,35.0,26.2,30.18,WNW,293,2.0,4.0,70,0.00,,,0.00,Wunderground v.1.13,2013-01-07 10:40:00,
2013-01-07 05:45:00,34.9,26.1,30.18,WNW,292,2.0,4.0,70,0.00,,,0.00,Wunderground v.1.13,2013-01-07 10:45:00,
2013-01-07 05:50:00,34.9,26.1,30.18,WNW,292,2.0,2.0,70,0.00,,,0.00,Wunderground v.1.13,2013-01-07 10:50:00,
2013-01-07 06:00:00,34.7,26.3,30.19,WNW,292,1.0,5.0,71,0.00,,,0.00,Wunderground v.1.13,2013-01-07 11:00:00,
2013-01-07 06:05:00,34.6,26.2,30.19,WNW,292,1.0,4.0,71,0.00,,,0.00,Wunderground v.1.13,2013-01-07 11:05:00,
2013-01-07 06:10:00,34.4,26.0,30.20,WNW,292,1.0,1.0,71,0.00,,,0.00,Wunderground v.1.13,2013-01-07 11:10:00,
2013-01-07 06:20:00,33.8,25.7,30.20,WNW,292,1.0,1.0,72,0.00,,,0.00,Wunderground v.1.13,2013-01-07 11:20:00,
2013-01-07 06:25:00,33.7,26.0,30.20,WNW,292,1.0,3.0,73,0.00,,,0.00,Wunderground v.1.13,2013-01-07 11:25:00,
2013-01-07 06:30:00,33.7,26.0,30.21,WNW,292,1.0,3.0,73,0.00,,,0.00,Wunderground v.1.13,2013-01-07 11:30:00,
2013-01-07 06:40:00,33.8,26.1,30.21,WNW,292,2.0,5.0,73,0.00,,,0.00,Wunderground v.1.13,2013-01-07 11:40:00,
2013-01-07 06:45:00,34.0,26.3,30.22,NW,306,2.0,5.0,73,0.00,,,0.00,Wunderground v.1.13,2013-01-07 11:45:00,
2013-01-07 06:55:00,34.7,26.6,30.22,West,279,3.0,3.0,72,0.00,,,0.00,Wunderground v.1.13,2013-01-07 11:55:00,
2013-01-07 07:00:00,34.9,26.4,30.22,West,277,3.0,3.0,71,0.00,,,0.00,Wunderground v.1.13,2013-01-07 12:00:00,
2013-01-07 07:05:00,34.9,26.4,30.23,West,276,3.0,3.0,71,0.00,,,0.00,Wunderground v.1.13,2013-01-07 12:05:00,
2013-01-07 07:15:00,35.0,26.5,30.23,West,272,3.0,3.0,71,0.00,,,0.00,Wunderground v.1.13,2013-01-07 12:15:00,
2013-01-07 07:20:00,35.0,26.5,30.23,WNW,283,3.0,3.0,71,0.00,,,0.00,Wunderground v.1.13,2013-01-07 12:20:00,
2013-01-07 07:25:00,35.0,26.5,30.24,West,281,3.0,5.0,71,0.00,,,0.00,Wunderground v.1.13,2013-01-07 12:25:00,
2013-01-07 07:30:00,34.9,26.4,30.24,West,265,3.0,5.0,71,0.00,,,0.00,Wunderground v.1.13,2013-01-07 12:30:00,
2013-01-07 07:40:00,34.9,26.4,30.24,West,277,3.0,5.0,71,0.00,,,0.00,Wunderground v.1.13,2013-01-07 12:40:00,
2013-01-07 07:45:00,35.0,26.5,30.25,West,274,3.0,3.0,71,0.00,,,0.00,Wunderground v.1.13,2013-01-07 12:45:00,
2013-01-07 07:50:00,35.0,26.5,30.25,West,277,3.0,6.0,71,0.00,,,0.00,Wunderground v.1.13,2013-01-07 12:50:00,
2013-01-07 08:00:00,35.3,26.8,30.25,West,276,3.0,3.0,71,0.00,,,0.00,Wunderground v.1.13,2013-01-07 13:00:00,
2013-01-07 08:05:00,35.5,26.7,30.26,West,275,3.0,3.0,70,0.00,,,0.00,Wunderground v.1.13,2013-01-07 13:05:00,
2013-01-07 08:15:00,35.9,26.7,30.26,WSW,244,3.0,6.0,69,0.00,,,0.00,Wunderground v.1.13,2013-01-07 13:15:00,
2013-01-07 08:20:00,36.2,27.0,30.26,West,275,3.0,7.0,69,0.00,,,0.00,Wunderground v.1.13,2013-01-07 13:20:00,
2013-01-07 08:30:00,36.8,27.2,30.27,WSW,239,2.0,7.0,68,0.00,,,0.00,Wunderground v.1.13,2013-01-07 13:30:00,
2013-01-07 08:35:00,36.9,27.3,30.27,WSW,238,2.0,2.0,68,0.00,,,0.00,Wunderground v.1.13,2013-01-07 13:35:00,
2013-01-07 08:40:00,37.2,27.6,30.27,WNW,298,3.0,6.0,68,0.00,,,0.00,Wunderground v.1.13,2013-01-07 13:40:00,
2013-01-07 08:45:00,37.6,27.6,30.28,WNW,282,3.0,3.0,67,0.00,,,0.00,Wunderground v.1.13,2013-01-07 13:45:00,
2013-01-07 08:55:00,38.0,27.6,30.29,WSW,240,3.0,3.0,66,0.00,,,0.00,Wunderground v.1.13,2013-01-07 13:55:00,
2013-01-07 09:00:00,38.5,27.7,30.29,WNW,296,3.0,3.0,65,0.00,,,0.00,Wunderground v.1.13,2013-01-07 14:00:00,
2013-01-07 09:10:00,39.3,28.1,30.29,SSW,213,4.0,9.0,64,0.00,,,0.00,Wunderground v.1.13,2013-01-07 14:10:00,
2013-01-07 09:15:00,39.9,28.3,30.30,SW,231,4.0,4.0,63,0.00,,,0.00,Wunderground v.1.13,2013-01-07 14:15:00,
2013-01-07 09:25:00,40.6,28.2,30.30,WNW,286,4.0,9.0,61,0.00,,,0.00,Wunderground v.1.13,2013-01-07 14:25:00,
2013-01-07 09:35:00,41.6,28.7,30.30,West,280,6.0,6.0,60,0.00,,,0.00,Wunderground v.1.13,2013-01-07 14:35:00,
2013-01-07 09:40:00,42.2,28.9,30.30,West,279,6.0,6.0,59,0.00,,,0.00,Wunderground v.1.13,2013-01-07 14:40:00,
2013-01-07 09:45:00,42.6,28.8,30.31,West,281,6.0,6.0,58,0.00,,,0.00,Wunderground v.1.13,2013-01-07 14:45:00,
2013-01-07 09:55:00,43.2,29.0,30.31,NNW,346,6.0,6.0,57,0.00,,,0.00,Wunderground v.1.13,2013-01-07 14:55:00,
2013-01-07 10:00:00,43.5,28.8,30.31,NNW,327,6.0,6.0,56,0.00,,,0.00,Wunderground v.1.13,2013-01-07 15:00:00,
2013-01-07 10:05:00,43.5,28.4,30.32,WNW,300,6.0,6.0,55,0.00,,,0.00,Wunderground v.1.13,2013-01-07 15:05:00,
2013-01-07 10:15:00,43.6,28.0,30.31,WNW,300,6.0,6.0,54,0.00,,,0.00,Wunderground v.1.13,2013-01-07 15:15:00,
2013-01-07 10:20:00,43.8,28.2,30.31,NW,306,6.0,17.0,54,0.00,,,0.00,Wunderground v.1.13,2013-01-07 15:20:00,
2013-01-07 10:30:00,44.2,27.7,30.32,WNW,302,6.0,17.0,52,0.00,,,0.00,Wunderground v.1.13,2013-01-07 15:30:00,
2013-01-07 10:35:00,44.2,28.1,30.32,NW,325,7.0,16.0,53,0.00,,,0.00,Wunderground v.1.13,2013-01-07 15:35:00,
2013-01-07 10:40:00,44.2,27.7,30.33,WNW,286,7.0,7.0,52,0.00,,,0.00,Wunderground v.1.13,2013-01-07 15:40:00,
2013-01-07 10:50:00,44.6,27.6,30.33,North,360,5.0,15.0,51,0.00,,,0.00,Wunderground v.1.13,2013-01-07 15:50:00,
2013-01-07 10:55:00,44.6,27.6,30.33,WNW,288,6.0,6.0,51,0.00,,,0.00,Wunderground v.1.13,2013-01-07 15:55:00,
2013-01-07 11:05:00,44.6,27.6,30.33,NW,313,7.0,7.0,51,0.00,,,0.00,Wunderground v.1.13,2013-01-07 16:05:00,
2013-01-07 11:10:00,44.6,26.6,30.32,NNW,336,7.0,15.0,49,0.00,,,0.00,Wunderground v.1.13,2013-01-07 16:10:00,
2013-01-07 11:15:00,44.8,27.3,30.32,NNW,331,7.0,7.0,50,0.00,,,0.00,Wunderground v.1.13,2013-01-07 16:15:00,
2013-01-07 11:20:00,44.9,26.9,30.32,WNW,300,7.0,7.0,49,0.00,,,0.00,Wunderground v.1.13,2013-01-07 16:20:00,
2013-01-07 11:30:00,44.9,26.9,30.32,NW,313,7.0,18.0,49,0.00,,,0.00,Wunderground v.1.13,2013-01-07 16:30:00,
2013-01-07 11:35:00,45.1,26.6,30.32,West,267,7.0,7.0,48,0.00,,,0.00,Wunderground v.1.13,2013-01-07 16:35:00,
2013-01-07 11:45:00,45.2,27.2,30.33,NNW,344,7.0,7.0,49,0.00,,,0.00,Wunderground v.1.13,2013-01-07 16:45:00,
2013-01-07 11:50:00,45.4,27.3,30.33,WNW,293,6.0,17.0,49,0.00,,,0.00,Wunderground v.1.13,2013-01-07 16:50:00,
2013-01-07 11:55:00,45.4,26.8,30.32,NW,315,7.0,17.0,48,0.00,,,0.00,Wunderground v.1.13,2013-01-07 16:55:00,
2013-01-07 12:05:00,45.4,26.8,30.32,WNW,284,8.0,8.0,48,0.00,,,0.00,Wunderground v.1.13,2013-01-07 17:05:00,
2013-01-07 12:10:00,45.4,27.3,30.32,West,275,7.0,7.0,49,0.00,,,0.00,Wunderground v.1.13,2013-01-07 17:10:00,
2013-01-07 12:20:00,45.7,26.6,30.32,WSW,250,5.0,13.0,47,0.00,,,0.00,Wunderground v.1.13,2013-01-07 17:20:00,
2013-01-07 12:25:00,45.7,26.1,30.33,NW,309,6.0,13.0,46,0.00,,,0.00,Wunderground v.1.13,2013-01-07 17:25:00,
2013-01-07 12:30:00,45.8,25.6,30.33,WNW,286,7.0,7.0,45,0.00,,,0.00,Wunderground v.1.13,2013-01-07 17:30:00,
2013-01-07 12:40:00,46.2,25.5,30.33,WNW,289,6.0,16.0,44,0.00,,,0.00,Wunderground v.1.13,2013-01-07 17:40:00,
2013-01-07 12:45:00,46.1,25.4,30.33,WSW,252,6.0,6.0,44,0.00,,,0.00,Wunderground v.1.13,2013-01-07 17:45:00,
2013-01-07 12:50:00,46.4,25.1,30.33,NW,323,5.0,5.0,43,0.00,,,0.00,Wunderground v.1.13,2013-01-07 17:50:00,
2013-01-07 13:00:00,46.7,24.8,30.33,NNW,340,6.0,15.0,42,0.00,,,0.00,Wunderground v.1.13,2013-01-07 18:00:00,
2013-01-07 13:05:00,46.8,24.9,30.33,WNW,298,5.0,5.0,42,0.00,,,0.00,Wunderground v.1.13,2013-01-07 18:05:00,
2013-01-07 13:10:00,46.7,24.8,30.33,West,272,5.0,12.0,42,0.00,,,0.00,Wunderground v.1.13,2013-01-07 18:10:00,
2013-01-07 13:20:00,46.7,24.8,30.33,West,275,6.0,6.0,42,0.00,,,0.00,Wunderground v.1.13,2013-01-07 18:20:00,
2013-01-07 13:25:00,47.0,25.1,30.34,WNW,300,6.0,15.0,42,0.00,,,0.00,Wunderground v.1.13,2013-01-07 18:25:00,
2013-01-07 13:35:00,46.8,23.7,30.34,WNW,300,5.0,13.0,40,0.00,,,0.00,Wunderground v.1.13,2013-01-07 18:35:00,
2013-01-07 13:45:00,46.7,23.6,30.34,NNE,18,6.0,6.0,40,0.00,,,0.00,Wunderground v.1.13,2013-01-07 18:45:00,
2013-01-07 13:50:00,46.8,24.3,30.34,WNW,289,5.0,5.0,41,0.00,,,0.00,Wunderground v.1.13,2013-01-07 18:50:00,
2013-01-07 14:00:00,47.0,23.3,30.34,NW,306,5.0,14.0,39,0.00,,,0.00,Wunderground v.1.13,2013-01-07 19:00:00,
2013-01-07 14:05:00,46.8,23.1,30.34,WNW,303,5.0,15.0,39,0.00,,,0.00,Wunderground v.1.13,2013-01-07 19:05:00,
2013-01-07 14:10:00,47.0,23.9,30.34,West,267,5.0,15.0,40,0.00,,,0.00,Wunderground v.1.13,2013-01-07 19:10:00,
2013-01-07 14:20:00,46.5,23.4,30.35,WNW,299,5.0,5.0,40,0.00,,,0.00,Wunderground v.1.13,2013-01-07 19:20:00,
2013-01-07 14:30:00,46.5,22.8,30.34,North,360,5.0,13.0,39,0.00,,,0.00,Wunderground v.1.13,2013-01-07 19:30:00,
2013-01-07 14:35:00,46.7,23.0,30.35,West,266,4.0,11.0,39,0.00,,,0.00,Wunderground v.1.13,2013-01-07 19:35:00,
2013-01-07 14:40:00,46.7,22.4,30.35,NW,312,4.0,4.0,38,0.00,,,0.00,Wunderground v.1.13,2013-01-07 19:40:00,
2013-01-07 14:50:00,46.4,22.1,30.35,NNW,333,3.0,10.0,38,0.00,,,0.00,Wunderground v.1.13,2013-01-07 19:50:00,
2013-01-07 14:55:00,46.5,21.6,30.35,NW,305,4.0,10.0,37,0.00,,,0.00,Wunderground v.1.13,2013-01-07 19:55:00,
2013-01-07 15:00:00,46.4,21.5,30.35,WNW,302,5.0,5.0,37,0.00,,,0.00,Wunderground v.1.13,2013-01-07 20:00:00,
2013-01-07 15:10:00,46.2,22.0,30.36,WSW,255,4.0,10.0,38,0.00,,,0.00,Wunderground v.1.13,2013-01-07 20:10:00,
2013-01-07 15:15:00,46.2,22.0,30.36,West,279,4.0,10.0,38,0.00,,,0.00,Wunderground v.1.13,2013-01-07 20:15:00,
2013-01-07 15:25:00,46.2,21.3,30.36,NE,42,3.0,10.0,37,0.00,,,0.00,Wunderground v.1.13,2013-01-07 20:25:00,
2013-01-07 15:30:00,46.4,22.1,30.36,NW,306,3.0,10.0,38,0.00,,,0.00,Wunderground v.1.13,2013-01-07 20:30:00,
2013-01-07 15:35:00,46.1,22.5,30.37,SW,236,3.0,3.0,39,0.00,,,0.00,Wunderground v.1.13,2013-01-07 20:35:00,
2013-01-07 15:40:00,46.1,23.7,30.37,WNW,282,2.0,10.0,41,0.00,,,0.00,Wunderground v.1.13,2013-01-07 20:40:00,
2013-01-07 15:50:00,46.0,23.0,30.37,WNW,285,3.0,3.0,40,0.00,,,0.00,Wunderground v.1.13,2013-01-07 20:50:00,
2013-01-07 15:55:00,45.8,23.4,30.38,WNW,284,2.0,7.0,41,0.00,,,0.00,Wunderground v.1.13,2013-01-07 20:55:00,
2013-01-07 16:05:00,45.4,23.6,30.38,NW,307,1.0,1.0,42,0.00,,,0.00,Wunderground v.1.13,2013-01-07 21:05:00,
2013-01-07 16:10:00,45.4,23.0,30.38,NW,308,1.0,1.0,41,0.00,,,0.00,Wunderground v.1.13,2013-01-07 21:10:00,
2013-01-07 16:15:00,45.2,23.4,30.38,NW,308,1.0,5.0,42,0.00,,,0.00,Wunderground v.1.13,2013-01-07 21:15:00,
2013-01-07 16:20:00,44.9,23.2,30.38,NW,306,1.0,3.0,42,0.00,,,0.00,Wunderground v.1.13,2013-01-07 21:20:00,
2013-01-07 16:30:00,44.5,23.4,30.38,NW,306,1.0,3.0,43,0.00,,,0.00,Wunderground v.1.13,2013-01-07 21:30:00,
2013-01-07 16:35:00,44.2,23.1,30.39,NW,306,1.0,1.0,43,0.00,,,0.00,Wunderground v.1.13,2013-01-07 21:35:00,
2013-01-07 16:45:00,43.9,23.4,30.39,NW,306,0.0,3.0,44,0.00,,,0.00,Wunderground v.1.13,2013-01-07 21:45:00,
2013-01-07 16:50:00,43.6,23.1,30.40,NW,306,0.0,3.0,44,0.00,,,0.00,Wunderground v.1.13,2013-01-07 21:50:00,
2013-01-07 16:55:00,43.2,23.8,30.40,NW,306,0.0,3.0,46,0.00,,,0.00,Wunderground v.1.13,2013-01-07 21:55:00,
2013-01-07 17:05:00,42.2,23.9,30.40,NW,306,0.0,0.0,48,0.00,,,0.00,Wunderground v.1.13,2013-01-07 22:05:00,
2013-01-07 17:10:00,41.3,24.5,30.40,NW,306,0.0,0.0,51,0.00,,,0.00,Wunderground v.1.13,2013-01-07 22:10:00,
2013-01-07 17:20:00,39.9,25.0,30.40,NW,306,0.0,0.0,55,0.00,,,0.00,Wunderground v.1.13,2013-01-07 22:20:00,
2013-01-07 17:25:00,39.2,24.8,30.40,NW,306,0.0,0.0,56,0.00,,,0.00,Wunderground v.1.13,2013-01-07 22:25:00,
2013-01-07 17:30:00,38.6,24.7,30.40,NW,306,0.0,0.0,57,0.00,,,0.00,Wunderground v.1.13,2013-01-07 22:30:00,
2013-01-07 17:40:00,37.8,24.7,30.40,NW,306,0.0,0.0,59,0.00,,,0.00,Wunderground v.1.13,2013-01-07 22:40:00,
2013-01-07 17:45:00,37.3,24.3,30.40,NW,306,0.0,0.0,59,0.00,,,0.00,Wunderground v.1.13,2013-01-07 22:45:00,
2013-01-07 17:55:00,36.5,24.3,30.40,NW,306,0.0,0.0,61,0.00,,,0.00,Wunderground v.1.13,2013-01-07 22:55:00,
2013-01-07 18:00:00,36.0,24.2,30.40,NW,306,0.0,0.0,62,0.00,,,0.00,Wunderground v.1.13,2013-01-07 23:00:00,
2013-01-07 18:05:00,35.6,24.2,30.40,NW,306,0.0,1.0,63,0.00,,,0.00,Wunderground v.1.13,2013-01-07 23:05:00,
2013-01-07 18:15:00,35.2,24.2,30.40,NW,306,0.0,1.0,64,0.00,,,0.00,Wunderground v.1.13,2013-01-07 23:15:00,
2013-01-07 18:20:00,35.0,24.0,30.40,NW,306,0.0,1.0,64,0.00,,,0.00,Wunderground v.1.13,2013-01-07 23:20:00,
2013-01-07 18:30:00,34.9,23.9,30.41,NW,306,0.0,1.0,64,0.00,,,0.00,Wunderground v.1.13,2013-01-07 23:30:00,
2013-01-07 18:35:00,34.7,23.8,30.41,NW,306,0.0,1.0,64,0.00,,,0.00,Wunderground v.1.13,2013-01-07 23:35:00,
2013-01-07 18:40:00,34.4,23.8,30.41,NW,306,0.0,1.0,65,0.00,,,0.00,Wunderground v.1.13,2013-01-07 23:40:00,
2013-01-07 18:50:00,34.0,23.8,30.41,NW,306,0.0,0.0,66,0.00,,,0.00,Wunderground v.1.13,2013-01-07 23:50:00,
2013-01-07 18:55:00,33.8,23.6,30.41,NW,306,0.0,0.0,66,0.00,,,0.00,Wunderground v.1.13,2013-01-07 23:55:00,
2013-01-07 19:05:00,33.5,23.7,30.41,NW,306,0.0,1.0,67,0.00,,,0.00,Wunderground v.1.13,2013-01-08 00:05:00,
2013-01-07 19:10:00,33.2,23.4,30.41,NW,306,0.0,1.0,67,0.00,,,0.00,Wunderground v.1.13,2013-01-08 00:10:00,
2013-01-07 19:15:00,32.9,23.5,30.41,NW,306,0.0,1.0,68,0.00,,,0.00,Wunderground v.1.13,2013-01-08 00:15:00,
2013-01-07 19:20:00,32.8,23.4,30.41,NW,306,0.0,1.0,68,0.00,,,0.00,Wunderground v.1.13,2013-01-08 00:20:00,
2013-01-07 19:30:00,32.2,23.5,30.41,NW,306,0.0,1.0,70,0.00,,,0.00,Wunderground v.1.13,2013-01-08 00:30:00,
2013-01-07 19:35:00,31.9,23.2,30.41,NW,306,0.0,0.0,70,0.00,,,0.00,Wunderground v.1.13,2013-01-08 00:35:00,
2013-01-07 19:40:00,31.8,23.5,30.41,NW,306,0.0,0.0,71,0.00,,,0.00,Wunderground v.1.13,2013-01-08 00:40:00,
2013-01-07 19:50:00,31.3,23.3,30.41,NW,306,0.0,0.0,72,0.00,,,0.00,Wunderground v.1.13,2013-01-08 00:50:00,
2013-01-07 19:55:00,31.2,23.5,30.41,NW,306,0.0,0.0,73,0.00,,,0.00,Wunderground v.1.13,2013-01-08 00:55:00,
2013-01-07 20:05:00,30.9,23.6,30.42,NW,306,0.0,2.0,74,0.00,,,0.00,Wunderground v.1.13,2013-01-08 01:05:00,
2013-01-07 20:10:00,30.7,23.7,30.41,NW,306,0.0,2.0,75,0.00,,,0.00,Wunderground v.1.13,2013-01-08 01:10:00,
2013-01-07 20:20:00,30.6,23.6,30.41,NW,306,0.0,1.0,75,0.00,,,0.00,Wunderground v.1.13,2013-01-08 01:20:00,
2013-01-07 20:25:00,30.4,23.4,30.41,NW,306,0.0,1.0,75,0.00,,,0.00,Wunderground v.1.13,2013-01-08 01:25:00,
2013-01-07 20:30:00,30.4,23.4,30.41,NW,306,0.0,1.0,75,0.00,,,0.00,Wunderground v.1.13,2013-01-08 01:30:00,
2013-01-07 20:35:00,30.3,23.3,30.41,NW,306,0.0,2.0,75,0.00,,,0.00,Wunderground v.1.13,2013-01-08 01:35:00,
2013-01-07 20:45:00,30.3,23.3,30.41,NW,306,0.0,2.0,75,0.00,,,0.00,Wunderground v.1.13,2013-01-08 01:45:00,
2013-01-07 20:50:00,30.3,23.3,30.41,NW,306,0.0,0.0,75,0.00,,,0.00,Wunderground v.1.13,2013-01-08 01:50:00,
2013-01-07 21:00:00,30.1,23.4,30.41,NW,306,0.0,0.0,76,0.00,,,0.00,Wunderground v.1.13,2013-01-08 02:00:00,
2013-01-07 21:05:00,30.0,23.4,30.41,NW,306,0.0,0.0,76,0.00,,,0.00,Wunderground v.1.13,2013-01-08 02:05:00,
2013-01-07 21:10:00,29.8,23.2,30.41,NW,306,0.0,0.0,76,0.00,,,0.00,Wunderground v.1.13,2013-01-08 02:10:00,
2013-01-07 21:20:00,29.5,23.2,30.40,NW,306,0.0,0.0,77,0.00,,,0.00,Wunderground v.1.13,2013-01-08 02:20:00,
2013-01-07 21:25:00,29.4,23.4,30.41,NW,306,0.0,0.0,78,0.00,,,0.00,Wunderground v.1.13,2013-01-08 02:25:00,
2013-01-07 21:30:00,29.4,23.4,30.41,NW,306,0.0,1.0,78,0.00,,,0.00,Wunderground v.1.13,2013-01-08 02:30:00,
2013-01-07 21:40:00,29.7,24.0,30.41,NW,305,1.0,1.0,79,0.00,,,0.00,Wunderground v.1.13,2013-01-08 02:40:00,
2013-01-07 21:45:00,30.4,24.1,30.41,NW,305,1.0,1.0,77,0.00,,,0.00,Wunderground v.1.13,2013-01-08 02:45:00,
2013-01-07 21:55:00,31.0,24.0,30.41,NW,305,1.0,1.0,75,0.00,,,0.00,Wunderground v.1.13,2013-01-08 02:55:00,
2013-01-07 22:00:00,30.9,24.2,30.41,NW,305,1.0,2.0,76,0.00,,,0.00,Wunderground v.1.13,2013-01-08 03:00:00,
2013-01-07 22:05:00,30.7,24.0,30.41,NW,305,1.0,1.0,76,0.00,,,0.00,Wunderground v.1.13,2013-01-08 03:05:00,
2013-01-07 22:15:00,30.7,24.0,30.41,NW,305,0.0,3.0,76,0.00,,,0.00,Wunderground v.1.13,2013-01-08 03:15:00,
2013-01-07 22:20:00,30.7,24.0,30.42,NW,305,0.0,2.0,76,0.00,,,0.00,Wunderground v.1.13,2013-01-08 03:20:00,
2013-01-07 22:25:00,30.6,23.9,30.42,NW,305,0.0,2.0,76,0.00,,,0.00,Wunderground v.1.13,2013-01-08 03:25:00,
2013-01-07 22:35:00,30.3,23.6,30.42,NW,305,0.0,1.0,76,0.00,,,0.00,Wunderground v.1.13,2013-01-08 03:35:00,
2013-01-07 22:40:00,30.3,23.6,30.42,NW,305,0.0,1.0,76,0.00,,,0.00,Wunderground v.1.13,2013-01-08 03:40:00,
2013-01-07 22:45:00,30.3,23.6,30.42,NW,305,0.0,1.0,76,0.00,,,0.00,Wunderground v.1.13,2013-01-08 03:45:00,
2013-01-07 22:55:00,30.3,23.6,30.42,NW,306,1.0,1.0,76,0.00,,,0.00,Wunderground v.1.13,2013-01-08 03:55:00,
2013-01-07 23:00:00,30.4,23.7,30.42,NW,305,0.0,2.0,76,0.00,,,0.00,Wunderground v.1.13,2013-01-08 04:00:00,
2013-01-07 23:05:00,30.4,23.7,30.42,NW,305,0.0,2.0,76,0.00,,,0.00,Wunderground v.1.13,2013-01-08 04:05:00,
2013-01-07 23:15:00,30.1,23.4,30.41,NW,305,0.0,2.0,76,0.00,,,0.00,Wunderground v.1.13,2013-01-08 04:15:00,
2013-01-07 23:20:00,30.0,23.4,30.41,NW,305,1.0,1.0,76,0.00,,,0.00,Wunderground v.1.13,2013-01-08 04:20:00,
2013-01-07 23:30:00,29.7,23.4,30.42,NW,305,0.0,2.0,77,0.00,,,0.00,Wunderground v.1.13,2013-01-08 04:30:00,
2013-01-07 23:35:00,29.5,23.2,30.42,NW,306,0.0,2.0,77,0.00,,,0.00,Wunderground v.1.13,2013-01-08 04:35:00,
2013-01-07 23:40:00,29.4,23.1,30.42,NW,305,0.0,2.0,77,0.00,,,0.00,Wunderground v.1.13,2013-01-08 04:40:00,
2013-01-07 23:50:00,29.0,23.0,30.42,NW,305,0.0,1.0,78,0.00,,,0.00,Wunderground v.1.13,2013-01-08 04:50:00,
2013-01-07 23:55:00,29.0,23.0,30.42,NW,305,0.0,1.0,78,0.00,,,0.00,Wunderground v.1.13,2013-01-08 04:55:00,